Sunday, February 25, 2018, 3:28 AM GMT
Back to Local

CWGR, Iles-De-La-Madelein

Location: , , Canada Lat: 47.417
Local Time: 3:28 AM GMT ( 3:28 GMT) Lon: -61.8
Time Zone: GMT Elev: 32 ft

Show me the last for .
Show Coded

Time T Td Feel RH Dir Speed Gust Alt SLP Vis Weather Sky Remarks
2018-02-25 03:00 21 18 9 86 340° 12 - - 30.11 0 Peak wind: 27 mph (24 kts) from 320° at 01 min
2018-02-25 02:00 24 17 9 75 320° 23 - - 30.05 0 Peak wind: 29 mph (26 kts) from 330° at 47 min
2018-02-25 01:00 26 19 13 73 320° 17 - - 30.02 0 Peak wind: 21 mph (19 kts) from 320° at 56 min
2018-02-25 00:00 26 19 13 74 320° 16 - - 29.98 0 Peak wind: 20 mph (18 kts) from 320° at 38 min
2018-02-24 23:00 24 19 12 81 300° 14 - - 29.96 0 Peak wind: 20 mph (18 kts) from 300° at 17 min
2018-02-24 22:00 24 20 9 82 300° 15 22 - 29.93 0 Peak wind: 21 mph (19 kts) from 300° at 58 min
2018-02-24 21:00 26 20 14 77 300° 16 - - 29.88 0 Peak wind: 21 mph (19 kts) from 290° at 12 min
2018-02-24 20:00 27 21 13 78 300° 16 22 - 29.83 0 Peak wind: 24 mph (21 kts) from 310° at 24 min
2018-02-24 19:00 28 23 14 80 300° 16 23 - 29.78 0 Peak wind: 26 mph (23 kts) from 290° at 01 min
2018-02-24 18:00 28 23 14 79 300° 18 24 - 29.76 0 Peak wind: 25 mph (22 kts) from 310° at 19 min
2018-02-24 17:00 29 26 15 86 300° 18 24 - 29.74 0 Peak wind: 24 mph (21 kts) from 290° at 46 min
2018-02-24 16:00 28 24 14 83 290° 18 25 - 29.72 0 Peak wind: 25 mph (22 kts) from 300° at 06 min
2018-02-24 15:00 29 25 15 85 300° 18 24 - 29.70 0 Peak wind: 27 mph (24 kts) from 290° at 37 min
2018-02-24 14:00 29 27 15 90 290° 20 26 - 29.68 0 Peak wind: 27 mph (24 kts) from 280° at 40 min
2018-02-24 13:00 31 28 17 87 260° 20 25 - 29.67 0 Peak wind: 27 mph (24 kts) from 240° at 36 min
1-hr Precip Total: 0.01"
2018-02-24 12:00 29 29 16 100 240° 21 - - 29.68 0 Peak wind: 25 mph (22 kts) from 240° at 56 min
2018-02-24 11:00 28 26 13 93 220° 16 24 - 29.70 0 Peak wind: 27 mph (24 kts) from 180° at 05 min
2018-02-24 10:00 27 25 11 92 200° 17 26 - 29.73 0 Peak wind: 29 mph (26 kts) from 200° at 30 min
2018-02-24 09:00 28 23 12 83 190° 18 28 - 29.77 0 Peak wind: 29 mph (26 kts) from 210° at 07 min
2018-02-24 08:00 25 22 8 87 190° 18 30 - 29.82 0 Peak wind: 29 mph (26 kts) from 190° at 58 min
Pressure falling rapidly
2018-02-24 07:00 25 22 9 89 200° 15 23 - 29.90 0 Peak wind: 24 mph (21 kts) from 200° at 16 min
Pressure falling rapidly
2018-02-24 06:00 24 21 9 86 190° 15 22 - 29.98 0 Peak wind: 23 mph (20 kts) from 190° at 50 min
Pressure falling rapidly
2018-02-24 05:00 23 20 9 89 210° 12 18 - 30.07 0 Peak wind: 24 mph (21 kts) from 210° at 39 min
2018-02-24 04:00 23 15 8 72 190° 14 21 - 30.09 0 Peak wind: 20 mph (18 kts) from 180° at 55 min
Pressure falling rapidly

Support USWX by starting your Amazon purchase here.